Airfield :
LOGIN :

Register | Disclaimer

   EN    FR    IT 

 










Legend :    VFR   Marginal VFR   IFR   Intensive IFR   Very Intensive IFR
Visi :
Ceiling :
>= 8 km
>= 3000ft
5 to 8 km
1000 to 3000 ft
1500m to 5 km
500 to 1000 ft
800 to 1500m
200 to 500 ft
< 800m
< 200 ft
Symbols :   Thunderstorms  Fog  Heavy snow  Heavy precipitations  Wind > 20 kt
SIGMETs :     Misc.  Thunderstorms  Icing  Turbulence  Mountain Waves  Volcanic Ashes






- Airport Elevation : 751 ft
- IATA code : ENC


LFSN - Nancy Essey

CURRENT METAR :
  • 131030Z AUTO 25014G26KT 220V290 9999 -DZ BKN018/// BKN026/// OVC037/// ///TCU 06/04 Q0982

EXPIRED METARs :
  • 131000Z AUTO 25015G30KT 220V290 9999 -DZ BKN023/// BKN029/// OVC035/// ///TCU 07/03 Q0981
  • 130930Z AUTO 25012G24KT 200V290 9999 -RA BKN026 OVC034 06/03 Q0981
  • 130900Z AUTO 25015KT 220V280 9999 -RA BKN027/// BKN034/// OVC048/// ///TCU 06/04 Q0980
  • 130830Z AUTO 25014G26KT 200V280 9999 -RA BKN021/// BKN026/// OVC034/// ///TCU 06/03 Q0979
  • 130800Z AUTO 25013G25KT 220V290 9999 -RA SCT018/// BKN024/// OVC033/// ///CB 06/04 Q0979
  • 130730Z AUTO 26013KT 230V300 9999 BKN025/// BKN033/// BKN130/// ///TCU 07/04 Q0977

Expired Forecast.



MET'MAP, your aeronautical weather chart ! - Copyright ORBIFLY December 2007 - Disclaimer

ORBIFLY MET'MAP TEAM :

Programming & Development : Alexandra Zaïnal
Concept & original design : Baudouin d'Aumeries
Assistance for programming : Marc-Olivier Méhu
Technical & hardware support : Manuel Goepfert

Contact : metmap@orbifly.com




SOURCES & CREDITS :

   NOAA